Time;durP1;ratioP1;P1;durP2;ratioP2;P2;SDS_P1;SDS_P2;PMS_P1;PMS_P2;Temp;Humidity;BMP_temperature;BMP_pressure;BME280_temperature;BME280_humidity;BME280_pressure;Samples;Min_cycle;Max_cycle;Signal;HPM_P1;HPM_P2
2022/04/09 00:01:53;;;;;;;4.83;3.53;;;;;;;14.07;61.52;98484.56;5111619;28;20575;-50
2022/04/09 00:04:20;;;;;;;4.03;3.67;;;;;;;14.02;61.83;98491.81;5111048;28;20221;-50
2022/04/09 00:06:48;;;;;;;3.77;3.27;;;;;;;14.06;61.79;98505.50;5111726;28;20217;-51
2022/04/09 00:09:15;;;;;;;3.47;3.27;;;;;;;13.98;61.80;98511.19;5111307;28;20190;-51
2022/04/09 00:11:42;;;;;;;4.23;3.53;;;;;;;14.02;61.68;98517.06;5111511;28;20205;-51
2022/04/09 00:14:09;;;;;;;3.50;3.20;;;;;;;14.07;62.00;98513.25;5111305;28;20190;-51
2022/04/09 00:16:35;;;;;;;4.93;3.23;;;;;;;13.99;62.27;98506.81;5111370;28;20608;-51
2022/04/09 00:19:02;;;;;;;4.97;3.57;;;;;;;14.06;61.85;98508.13;5111400;28;20597;-50
2022/04/09 00:21:29;;;;;;;4.03;3.63;;;;;;;14.12;61.45;98497.31;5111095;28;20714;-50
2022/04/09 00:23:58;;;;;;;4.30;3.30;;;;;;;14.12;61.65;98489.47;5110996;28;20674;-50
2022/04/09 00:26:25;;;;;;;3.50;3.20;;;;;;;14.01;61.51;98476.22;5110146;28;20288;-50
2022/04/09 00:28:52;;;;;;;7.00;3.10;;;;;;;14.05;61.97;98490.78;5111347;28;20277;-50
2022/04/09 00:31:19;;;;;;;4.87;3.40;;;;;;;14.04;62.04;98497.78;5110614;28;20692;-51
2022/04/09 00:33:46;;;;;;;6.10;3.67;;;;;;;14.03;62.11;98503.91;5112187;27;20232;-52
2022/04/09 00:36:13;;;;;;;3.93;3.43;;;;;;;14.05;62.03;98509.06;5119958;27;20210;-52
2022/04/09 00:38:40;;;;;;;4.77;4.30;;;;;;;13.85;63.42;98509.38;5121411;27;20618;-53
2022/04/09 00:41:11;;;;;;;5.93;4.13;;;;;;;13.71;64.28;98505.78;5116099;27;20191;-52
2022/04/09 00:43:40;;;;;;;4.60;4.10;;;;;;;13.70;63.85;98500.66;5115197;27;20630;-52
2022/04/09 00:46:07;;;;;;;4.83;3.90;;;;;;;13.79;64.05;98521.84;5116156;27;20194;-51
2022/04/09 00:48:35;;;;;;;5.03;3.30;;;;;;;13.78;64.13;98514.94;5110601;28;20209;-52
2022/04/09 00:51:01;;;;;;;4.33;3.80;;;;;;;13.79;63.86;98516.63;5110789;28;20217;-52
2022/04/09 00:53:34;;;;;;;6.87;3.80;;;;;;;13.87;63.85;98512.75;5110438;28;20210;-52
2022/04/09 00:56:15;;;;;;;4.03;3.20;;;;;;;13.90;63.69;98523.81;5110502;28;20222;-52
2022/04/09 00:58:49;;;;;;;7.10;3.67;;;;;;;13.69;64.39;98505.03;5110664;28;20644;-51
2022/04/09 01:01:18;;;;;;;5.27;3.70;;;;;;;13.76;64.60;98516.81;5110757;28;20286;-51
2022/04/09 01:03:45;;;;;;;6.90;3.47;;;;;;;13.76;65.03;98513.38;5110565;28;20194;-52
2022/04/09 01:06:13;;;;;;;6.77;4.27;;;;;;;13.71;65.89;98503.19;5110489;28;20226;-51
2022/04/09 01:08:40;;;;;;;4.33;4.03;;;;;;;13.54;68.65;98515.53;5110174;28;20286;-50
2022/04/09 01:11:07;;;;;;;7.37;4.20;;;;;;;13.44;69.64;98517.78;5110272;28;20206;-50
2022/04/09 01:13:35;;;;;;;5.53;4.47;;;;;;;13.37;71.22;98525.13;5110117;28;20222;-50
2022/04/09 01:16:04;;;;;;;5.47;4.20;;;;;;;13.35;71.38;98520.91;5110155;28;20214;-51
2022/04/09 01:18:33;;;;;;;10.10;4.77;;;;;;;13.37;71.12;98514.69;5110191;28;20239;-52
2022/04/09 01:21:00;;;;;;;4.73;4.33;;;;;;;13.44;71.04;98515.19;5110355;28;20638;-51
2022/04/09 01:23:30;;;;;;;8.20;5.30;;;;;;;13.47;70.45;98512.41;5110017;28;20195;-50
2022/04/09 01:25:58;;;;;;;6.33;4.57;;;;;;;13.35;72.07;98515.69;5110203;28;20228;-51
2022/04/09 01:28:25;;;;;;;7.43;4.63;;;;;;;13.32;72.40;98515.84;5110233;28;20199;-50
2022/04/09 01:30:53;;;;;;;5.27;4.87;;;;;;;13.18;73.48;98510.59;5110178;28;20191;-50
2022/04/09 01:33:22;;;;;;;7.33;5.13;;;;;;;13.02;74.95;98514.00;5110056;28;20206;-51
2022/04/09 01:35:50;;;;;;;11.00;5.57;;;;;;;13.17;74.29;98514.97;5110352;28;20229;-51
2022/04/09 01:38:17;;;;;;;6.33;5.43;;;;;;;13.25;74.26;98510.16;5114233;28;20198;-51
2022/04/09 01:40:45;;;;;;;7.00;4.97;;;;;;;13.25;74.20;98510.16;5114299;28;20569;-51
2022/04/09 01:43:12;;;;;;;7.63;4.77;;;;;;;13.20;74.17;98495.72;5114035;28;20209;-50
2022/04/09 01:45:40;;;;;;;5.47;4.97;;;;;;;13.26;73.57;98497.97;5113848;28;20240;-50
2022/04/09 01:48:07;;;;;;;7.33;4.77;;;;;;;13.20;74.09;98493.13;5114026;28;20199;-52
2022/04/09 01:50:34;;;;;;;8.57;5.60;;;;;;;13.20;73.96;98498.31;5113667;28;20202;-52
2022/04/09 01:53:01;;;;;;;5.10;4.70;;;;;;;13.19;73.82;98494.03;5114185;28;20195;-52
2022/04/09 01:55:28;;;;;;;6.33;4.80;;;;;;;13.14;74.06;98493.41;5113671;28;20222;-52
2022/04/09 01:57:57;;;;;;;7.00;5.00;;;;;;;13.12;74.23;98496.09;5113761;28;20198;-52
2022/04/09 02:00:24;;;;;;;8.90;4.80;;;;;;;13.12;74.35;98497.84;5113596;28;20285;-52
2022/04/09 02:02:51;;;;;;;7.80;5.57;;;;;;;12.99;74.71;98503.75;5113838;28;20234;-52
2022/04/09 02:05:19;;;;;;;6.00;5.30;;;;;;;12.87;75.92;98500.97;5113907;28;20271;-51
2022/04/09 02:07:47;;;;;;;6.17;5.57;;;;;;;12.97;74.38;98512.59;5113806;28;20295;-50
2022/04/09 02:10:15;;;;;;;7.57;5.30;;;;;;;12.86;74.33;98504.50;5113573;28;20191;-51
2022/04/09 02:12:43;;;;;;;8.27;6.27;;;;;;;12.85;74.60;98510.66;5113473;28;20205;-51
2022/04/09 02:15:13;;;;;;;6.13;5.53;;;;;;;12.82;74.49;98508.19;5113577;28;20198;-51
2022/04/09 02:17:41;;;;;;;8.97;6.10;;;;;;;12.73;75.29;98501.72;5113213;28;20194;-51
2022/04/09 02:20:11;;;;;;;9.23;5.37;;;;;;;12.62;75.88;98499.69;5113379;28;20199;-50
2022/04/09 02:22:38;;;;;;;6.53;5.73;;;;;;;12.53;76.78;98499.31;5113238;28;20201;-50
2022/04/09 02:25:06;;;;;;;11.03;5.83;;;;;;;12.57;77.17;98500.84;5113407;28;20662;-49
2022/04/09 02:27:34;;;;;;;9.37;6.13;;;;;;;12.48;77.26;98502.19;5113072;28;20226;-52
2022/04/09 02:30:01;;;;;;;12.60;7.30;;;;;;;12.40;77.94;98508.72;5113183;28;20286;-50
2022/04/09 02:32:29;;;;;;;13.13;8.50;;;;;;;12.43;77.71;98505.94;5113318;28;20681;-50
2022/04/09 02:34:56;;;;;;;15.17;8.87;;;;;;;12.47;76.54;98490.09;5113295;28;20576;-51
2022/04/09 02:37:24;;;;;;;17.13;10.23;;;;;;;12.44;76.34;98485.03;5112932;28;20214;-52
2022/04/09 02:39:51;;;;;;;19.87;11.33;;;;;;;12.50;76.24;98492.53;5112963;28;20194;-52
2022/04/09 02:42:19;;;;;;;20.03;11.10;;;;;;;12.40;77.07;98488.75;5112965;28;20202;-52
2022/04/09 02:44:47;;;;;;;20.47;10.93;;;;;;;12.48;76.96;98496.97;5112720;28;20719;-53
2022/04/09 02:47:14;;;;;;;24.27;12.20;;;;;;;12.53;76.37;98499.31;5112845;28;20693;-50
2022/04/09 02:49:43;;;;;;;21.40;13.00;;;;;;;12.60;75.84;98487.69;5112520;28;20195;-51
2022/04/09 02:52:09;;;;;;;23.13;13.63;;;;;;;12.58;75.61;98492.13;5112893;28;20201;-51
2022/04/09 02:54:36;;;;;;;24.77;14.17;;;;;;;12.58;75.45;98484.31;5112511;28;20203;-52
2022/04/09 02:57:04;;;;;;;24.13;14.60;;;;;;;12.54;75.95;98486.22;5112552;28;20305;-51
2022/04/09 02:59:31;;;;;;;28.17;16.07;;;;;;;12.52;76.35;98482.03;5112368;28;20191;-51
2022/04/09 03:01:58;;;;;;;31.90;15.83;;;;;;;12.54;75.86;98482.78;5112637;28;20199;-51
2022/04/09 03:04:25;;;;;;;31.67;15.17;;;;;;;12.47;76.06;98486.66;5112781;28;20636;-51
2022/04/09 03:06:53;;;;;;;25.57;13.73;;;;;;;12.51;75.83;98491.63;5112689;28;20191;-51
2022/04/09 03:09:20;;;;;;;27.67;15.03;;;;;;;12.51;75.62;98490.78;5112303;28;20195;-51
2022/04/09 03:11:47;;;;;;;29.87;16.00;;;;;;;12.49;75.53;98498.66;5112323;28;20198;-50
2022/04/09 03:14:15;;;;;;;26.57;15.53;;;;;;;12.42;76.07;98496.44;5112374;28;20685;-51
2022/04/09 03:16:42;;;;;;;30.03;15.23;;;;;;;12.36;76.43;98488.06;5112232;28;20283;-49
2022/04/09 03:19:09;;;;;;;32.40;15.30;;;;;;;12.45;76.45;98485.88;5110370;28;20532;-51
2022/04/09 03:21:36;;;;;;;34.63;15.87;;;;;;;12.45;76.37;98493.69;5110543;28;20306;-51
2022/04/09 03:24:04;;;;;;;31.50;15.77;;;;;;;12.42;76.72;98499.03;5111384;28;20309;-51
2022/04/09 03:26:31;;;;;;;24.60;14.27;;;;;;;12.51;76.25;98490.78;5111178;28;20229;-52
2022/04/09 03:28:58;;;;;;;22.77;12.90;;;;;;;12.43;76.71;98492.91;5111418;28;20305;-50
2022/04/09 03:31:25;;;;;;;26.40;14.43;;;;;;;12.38;76.97;98493.19;5111570;28;20313;-50
2022/04/09 03:33:53;;;;;;;31.57;13.27;;;;;;;12.31;77.41;98494.41;5110834;28;20313;-51
2022/04/09 03:36:20;;;;;;;23.77;13.67;;;;;;;12.32;77.58;98490.88;5111628;28;20230;-52
2022/04/09 03:38:47;;;;;;;26.37;13.07;;;;;;;12.33;76.94;98483.00;5111451;28;20301;-51
2022/04/09 03:41:15;;;;;;;22.93;13.20;;;;;;;12.36;76.53;98469.84;5111286;28;20298;-52
2022/04/09 03:43:42;;;;;;;29.57;14.80;;;;;;;12.43;76.63;98478.16;5111381;28;20218;-51
2022/04/09 03:46:09;;;;;;;24.03;13.70;;;;;;;12.35;77.39;98480.31;5111067;28;20297;-51
2022/04/09 03:48:36;;;;;;;23.87;13.63;;;;;;;12.29;77.66;98478.91;5110853;28;20769;-52
2022/04/09 03:51:03;;;;;;;27.80;13.87;;;;;;;12.27;77.85;98472.94;5111069;28;20305;-51
2022/04/09 03:53:30;;;;;;;28.33;14.17;;;;;;;12.32;77.40;98475.25;5115734;27;20240;-52
2022/04/09 03:55:57;;;;;;;22.63;14.03;;;;;;;12.38;77.49;98474.13;5119038;27;20221;-50
2022/04/09 03:58:26;;;;;;;24.13;14.00;;;;;;;12.45;77.36;98475.47;5120228;27;20217;-50
2022/04/09 04:00:53;;;;;;;24.73;13.93;;;;;;;12.51;77.30;98478.59;5123067;27;20309;-51
2022/04/09 04:03:20;;;;;;;28.13;14.30;;;;;;;12.49;77.78;98479.59;5125614;27;20291;-51
2022/04/09 04:05:48;;;;;;;28.37;14.20;;;;;;;12.47;78.46;98479.69;5113200;27;20226;-52
2022/04/09 04:08:15;;;;;;;26.90;13.93;;;;;;;12.23;80.38;98481.78;5112784;27;20218;-52
2022/04/09 04:10:42;;;;;;;32.07;15.40;;;;;;;12.35;80.48;98483.75;5118386;27;20593;-52
2022/04/09 04:13:10;;;;;;;25.43;14.20;;;;;;;12.38;80.00;98482.78;5120042;27;20220;-51
2022/04/09 04:15:38;;;;;;;26.97;13.77;;;;;;;12.46;79.49;98482.34;5119212;27;20214;-52
2022/04/09 04:18:05;;;;;;;27.03;13.83;;;;;;;12.62;78.63;98488.44;5118514;27;20705;-51
2022/04/09 04:20:33;;;;;;;23.57;13.77;;;;;;;12.81;77.54;98489.13;5130681;27;20222;-51
2022/04/09 04:23:00;;;;;;;30.63;13.57;;;;;;;12.90;76.89;98483.41;5131185;27;20308;-52
2022/04/09 04:25:27;;;;;;;29.30;13.53;;;;;;;13.00;76.12;98484.59;5130700;27;20218;-52
2022/04/09 04:27:54;;;;;;;24.07;13.00;;;;;;;13.11;74.78;98486.59;5131295;27;20767;-51
2022/04/09 04:30:21;;;;;;;20.13;12.97;;;;;;;13.23;73.77;98505.94;5130759;27;20217;-51
2022/04/09 04:32:50;;;;;;;19.40;11.53;;;;;;;13.12;72.52;98513.50;5121270;27;20236;-52
2022/04/09 04:35:17;;;;;;;16.53;10.30;;;;;;;13.05;72.18;98506.03;5111374;27;20195;-52
2022/04/09 04:37:45;;;;;;;14.73;9.43;;;;;;;13.06;77.19;98499.91;5115929;27;20206;-52
2022/04/09 04:40:13;;;;;;;14.27;8.93;;;;;;;13.04;72.56;98503.50;5121853;27;20198;-52
2022/04/09 04:42:40;;;;;;;12.40;9.07;;;;;;;13.16;71.82;98500.25;5110093;27;20237;-52
2022/04/09 04:45:10;;;;;;;12.67;9.60;;;;;;;13.15;70.83;98492.53;5112900;27;20611;-51
2022/04/09 04:47:43;;;;;;;15.90;11.23;;;;;;;13.19;70.59;98509.66;5125339;27;20286;-51
2022/04/09 04:50:12;;;;;;;28.47;12.23;;;;;;;13.18;70.80;98505.38;5108974;28;20201;-50
2022/04/09 04:52:39;;;;;;;24.17;11.67;;;;;;;13.38;70.10;98515.53;5109615;28;20210;-51
2022/04/09 04:55:07;;;;;;;15.60;10.67;;;;;;;13.61;68.36;98512.47;5118679;27;20190;-51
2022/04/09 04:57:41;;;;;;;23.07;10.60;;;;;;;13.59;67.35;98490.00;5129836;27;20232;-50
2022/04/09 05:00:09;;;;;;;15.80;9.63;;;;;;;13.75;66.62;98509.91;5114566;27;20187;-52
2022/04/09 05:02:36;;;;;;;12.70;9.00;;;;;;;13.56;66.97;98509.28;5119308;28;20197;-51
2022/04/09 05:05:04;;;;;;;16.60;9.13;;;;;;;13.58;67.05;98509.19;5120126;27;20206;-52
2022/04/09 05:07:42;;;;;;;17.97;9.50;;;;;;;13.55;67.18;98510.19;5120188;28;20190;-52
2022/04/09 05:10:11;;;;;;;17.50;9.87;;;;;;;13.60;66.95;98509.94;5119088;28;20190;-52
2022/04/09 05:12:38;;;;;;;16.23;10.90;;;;;;;13.60;66.79;98508.19;5121155;27;20191;-52
2022/04/09 05:15:07;;;;;;;16.20;9.50;;;;;;;13.67;66.92;98500.84;5124068;27;20190;-52
2022/04/09 05:17:34;;;;;;;17.70;9.33;;;;;;;13.75;66.08;98494.28;5119811;27;20297;-52
2022/04/09 05:20:03;;;;;;;16.03;9.43;;;;;;;13.77;64.89;98501.97;5121559;27;20194;-53
2022/04/09 05:22:30;;;;;;;14.07;9.07;;;;;;;13.65;65.03;98502.72;5125860;27;20189;-52
2022/04/09 05:24:59;;;;;;;10.97;8.87;;;;;;;13.70;64.97;98496.28;5124201;27;20698;-52
2022/04/09 05:27:27;;;;;;;10.17;8.83;;;;;;;13.90;64.88;98495.13;5124518;27;20221;-52
2022/04/09 05:29:54;;;;;;;14.07;9.43;;;;;;;13.90;64.28;98491.69;5124822;27;20201;-53
2022/04/09 05:32:21;;;;;;;16.77;9.43;;;;;;;13.86;64.65;98490.19;5119694;27;20202;-53
2022/04/09 05:34:49;;;;;;;19.37;11.10;;;;;;;13.94;64.66;98498.41;5121266;27;20634;-52
2022/04/09 05:37:17;;;;;;;15.93;10.77;;;;;;;13.94;64.49;98493.19;5128770;27;20235;-52
2022/04/09 05:39:44;;;;;;;12.70;10.33;;;;;;;14.25;63.67;98495.66;5127100;27;20674;-52
2022/04/09 05:42:12;;;;;;;16.70;10.23;;;;;;;14.49;62.56;98489.00;5127010;27;20190;-53
2022/04/09 05:44:39;;;;;;;19.20;9.40;;;;;;;14.65;60.86;98488.06;5132212;27;20200;-53
2022/04/09 05:47:06;;;;;;;11.13;8.07;;;;;;;15.01;59.69;98487.53;5126816;27;20603;-52
2022/04/09 05:49:33;;;;;;;11.33;7.90;;;;;;;16.02;56.81;98487.06;5123996;27;20190;-53
2022/04/09 05:52:00;;;;;;;18.47;8.33;;;;;;;17.51;51.44;98492.22;5125244;27;20231;-51
2022/04/09 05:54:27;;;;;;;12.80;8.50;;;;;;;19.07;46.95;98487.28;5126552;27;20269;-52
2022/04/09 05:56:54;;;;;;;13.47;8.63;;;;;;;19.75;44.47;98478.25;5124071;27;20712;-51
2022/04/09 05:59:25;;;;;;;11.03;8.63;;;;;;;19.85;44.04;98489.69;5136287;27;20239;-51
2022/04/09 06:01:52;;;;;;;11.80;7.55;;;;;;;19.57;44.44;98485.84;5127228;27;20701;-51
2022/04/09 06:04:20;;;;;;;9.38;6.35;;;;;;;19.03;45.21;98488.47;5124474;27;20725;-50
2022/04/09 06:06:47;;;;;;;7.57;6.28;;;;;;;19.34;45.08;98478.94;5116688;27;20273;-52
2022/04/09 06:09:14;;;;;;;8.82;6.18;;;;;;;19.99;44.37;98476.19;5116965;28;20201;-52
2022/04/09 06:11:42;;;;;;;7.05;5.63;;;;;;;21.20;43.31;98478.03;5116170;28;20201;-53
2022/04/09 06:14:09;;;;;;;6.13;5.32;;;;;;;22.86;39.61;98470.59;5120677;27;20246;-53
2022/04/09 06:16:38;;;;;;;7.53;5.10;;;;;;;23.05;37.90;98467.84;5136015;27;20232;-52
2022/04/09 06:19:06;;;;;;;5.85;5.18;;;;;;;24.42;35.23;98469.25;5136065;27;20262;-51
2022/04/09 06:21:33;;;;;;;8.00;5.50;;;;;;;25.30;34.51;98471.44;5135954;27;20193;-51
2022/04/09 06:24:00;;;;;;;7.82;5.90;;;;;;;26.41;32.72;98473.69;5131978;27;20281;-51
2022/04/09 06:26:28;;;;;;;7.35;5.80;;;;;;;26.97;32.00;98478.03;5132985;27;20238;-51
2022/04/09 06:28:55;;;;;;;7.57;6.75;;;;;;;27.58;30.20;98476.38;5133053;27;20621;-52
2022/04/09 06:31:22;;;;;;;7.75;7.05;;;;;;;27.98;29.76;98476.06;5127026;27;20197;-52
2022/04/09 06:33:51;;;;;;;17.88;9.80;;;;;;;28.29;29.01;98459.13;5112175;27;20199;-53
2022/04/09 06:36:18;;;;;;;14.82;8.98;;;;;;;28.79;28.84;98451.25;5112347;27;20195;-53
2022/04/09 06:38:45;;;;;;;20.73;10.98;;;;;;;29.18;29.01;98466.94;5117188;27;20218;-49
2022/04/09 06:41:12;;;;;;;17.00;10.05;;;;;;;29.18;28.14;98463.44;5112163;28;20194;-50
2022/04/09 06:43:39;;;;;;;10.45;8.68;;;;;;;29.09;28.32;98467.25;5112042;28;20290;-51
2022/04/09 06:46:06;;;;;;;11.90;8.05;;;;;;;29.70;27.54;98460.50;5120209;27;20204;-52
2022/04/09 06:48:32;;;;;;;10.70;7.25;;;;;;;29.38;28.02;98459.16;5118141;27;20194;-52
2022/04/09 06:51:01;;;;;;;11.32;8.05;;;;;;;29.48;27.96;98461.53;5119498;27;20722;-52
2022/04/09 06:53:28;;;;;;;11.23;7.90;;;;;;;29.60;27.52;98471.53;5126763;27;20580;-53
2022/04/09 06:55:55;;;;;;;7.80;7.10;;;;;;;29.71;27.61;98470.19;5132731;27;20200;-53
2022/04/09 06:58:21;;;;;;;13.05;7.28;;;;;;;29.92;27.32;98474.69;5130036;27;20219;-53
2022/04/09 07:00:48;;;;;;;11.63;6.35;;;;;;;29.50;27.95;98463.00;5119734;27;20201;-53
2022/04/09 07:03:15;;;;;;;9.82;6.60;;;;;;;29.15;27.93;98461.13;5121982;27;20203;-52
2022/04/09 07:05:44;;;;;;;7.18;5.63;;;;;;;28.90;28.58;98466.78;5121034;27;20202;-52
2022/04/09 07:08:12;;;;;;;5.43;5.00;;;;;;;29.80;27.39;98471.72;5112322;28;20197;-52
2022/04/09 07:10:39;;;;;;;11.43;5.40;;;;;;;30.10;28.51;98471.59;5114050;27;20571;-53
2022/04/09 07:13:06;;;;;;;7.80;5.60;;;;;;;31.08;26.01;98468.69;5113072;27;20201;-51
2022/04/09 07:15:34;;;;;;;5.80;4.57;;;;;;;31.36;25.47;98460.59;5111253;27;20305;-50
2022/04/09 07:18:00;;;;;;;8.05;5.63;;;;;;;31.51;25.69;98458.53;5111905;28;20225;-51
2022/04/09 07:20:29;;;;;;;9.02;4.90;;;;;;;32.20;25.23;98455.56;5112523;28;20194;-51
2022/04/09 07:22:56;;;;;;;6.18;4.85;;;;;;;32.62;24.54;98458.81;5112245;28;20238;-51
2022/04/09 07:25:24;;;;;;;10.15;4.45;;;;;;;33.24;23.66;98458.19;5129971;27;20618;-52
2022/04/09 07:27:51;;;;;;;7.85;4.68;;;;;;;32.45;23.98;98456.56;5125896;27;20197;-52
2022/04/09 07:30:20;;;;;;;5.82;4.03;;;;;;;32.06;24.69;98454.69;5113797;27;20195;-52
2022/04/09 07:32:49;;;;;;;6.85;4.40;;;;;;;32.11;24.23;98451.41;5111681;27;20662;-52
2022/04/09 07:35:16;;;;;;;4.82;3.72;;;;;;;31.83;24.52;98464.22;5111309;28;20198;-52
2022/04/09 07:37:45;;;;;;;4.32;4.03;;;;;;;31.40;24.83;98464.50;5111856;28;20236;-52
2022/04/09 07:40:13;;;;;;;6.80;4.05;;;;;;;31.90;24.52;98463.19;5111845;28;20290;-52
2022/04/09 07:42:44;;;;;;;4.78;3.85;;;;;;;32.55;23.98;98460.66;5111553;28;20195;-52
2022/04/09 07:45:11;;;;;;;8.10;4.05;;;;;;;33.15;23.37;98452.22;5112125;28;20606;-54
2022/04/09 07:47:39;;;;;;;7.15;3.80;;;;;;;34.06;22.88;98468.03;5111507;28;20197;-53
2022/04/09 07:50:10;;;;;;;6.13;3.55;;;;;;;34.40;22.52;98469.41;5111843;28;20198;-52
2022/04/09 07:52:38;;;;;;;6.50;3.85;;;;;;;34.42;22.12;98456.53;5111835;28;20748;-52
2022/04/09 07:55:07;;;;;;;7.03;4.40;;;;;;;35.06;21.60;98449.81;5111545;28;20195;-52
2022/04/09 07:57:34;;;;;;;6.50;3.83;;;;;;;36.17;20.93;98453.78;5111692;28;20226;-52
2022/04/09 08:00:02;;;;;;;4.40;3.95;;;;;;;37.16;19.86;98450.06;5111754;28;20212;-53
2022/04/09 08:02:29;;;;;;;6.30;4.35;;;;;;;37.65;19.33;98450.47;5111421;28;20247;-52
2022/04/09 08:04:56;;;;;;;6.53;4.03;;;;;;;37.20;19.03;98447.72;5111494;28;20204;-52
2022/04/09 08:07:23;;;;;;;7.38;3.70;;;;;;;36.85;19.59;98445.09;5111479;28;20198;-53
2022/04/09 08:09:50;;;;;;;8.27;4.20;;;;;;;37.19;19.36;98443.38;5111189;28;20202;-51
2022/04/09 08:12:17;;;;;;;4.82;4.25;;;;;;;36.69;19.30;98435.81;5111196;28;20190;-52
2022/04/09 08:14:44;;;;;;;6.93;4.13;;;;;;;35.30;20.86;98423.78;5110433;28;20596;-52
2022/04/09 08:17:13;;;;;;;5.15;4.47;;;;;;;35.11;20.90;98420.25;5110511;28;20194;-52
2022/04/09 08:19:40;;;;;;;6.90;4.63;;;;;;;36.38;20.28;98418.09;5110701;28;20289;-53
2022/04/09 08:22:08;;;;;;;4.85;3.92;;;;;;;36.06;20.40;98420.31;5111075;28;20200;-52
2022/04/09 08:24:35;;;;;;;4.93;4.45;;;;;;;36.52;20.57;98418.69;5110951;28;20197;-52
2022/04/09 08:27:02;;;;;;;4.90;4.50;;;;;;;35.37;21.35;98420.97;5111059;28;20226;-53
2022/04/09 08:29:30;;;;;;;5.38;4.90;;;;;;;36.44;20.78;98417.16;5111116;28;20294;-53
2022/04/09 08:31:56;;;;;;;9.35;4.63;;;;;;;36.13;20.82;98404.81;5110897;28;20293;-53
2022/04/09 08:34:28;;;;;;;6.28;4.80;;;;;;;35.22;21.75;98397.91;5117965;27;20208;-52
2022/04/09 08:36:54;;;;;;;5.97;4.45;;;;;;;34.97;21.63;98401.81;5121567;27;20754;-53
2022/04/09 08:39:21;;;;;;;5.93;4.43;;;;;;;35.02;21.91;98397.38;5123077;27;20236;-53
2022/04/09 08:41:49;;;;;;;5.95;4.40;;;;;;;34.98;21.71;98390.81;5127961;27;20204;-52
2022/04/09 08:44:17;;;;;;;5.80;4.45;;;;;;;36.36;20.50;98393.19;5129680;27;20285;-52
2022/04/09 08:46:46;;;;;;;4.00;3.70;;;;;;;36.48;20.37;98390.47;5129328;27;20235;-52
2022/04/09 08:49:13;;;;;;;6.03;4.15;;;;;;;36.51;20.43;98385.41;5130811;27;20281;-51
2022/04/09 08:51:42;;;;;;;4.28;3.88;;;;;;;37.21;19.33;98379.81;5129569;27;20226;-52
2022/04/09 08:54:09;;;;;;;5.18;4.22;;;;;;;37.70;19.26;98388.28;5119926;27;20197;-52
2022/04/09 08:56:37;;;;;;;5.60;3.90;;;;;;;38.30;18.43;98376.72;5121111;27;20272;-53
2022/04/09 08:59:05;;;;;;;9.55;3.90;;;;;;;38.02;18.61;98381.19;5118969;27;20257;-53
2022/04/09 09:01:33;;;;;;;6.63;3.88;;;;;;;37.97;19.13;98381.09;5118791;27;20197;-53
2022/04/09 09:04:01;;;;;;;5.03;4.53;;;;;;;37.60;19.53;98375.34;5120476;27;20201;-52
2022/04/09 09:06:29;;;;;;;5.18;4.72;;;;;;;37.22;19.59;98370.66;5117575;27;20198;-52
2022/04/09 09:08:59;;;;;;;5.63;3.63;;;;;;;37.94;18.77;98373.47;5119629;27;20204;-52
2022/04/09 09:11:27;;;;;;;7.13;4.20;;;;;;;36.73;19.48;98372.94;5120383;28;20198;-52
2022/04/09 09:13:56;;;;;;;10.57;5.40;;;;;;;35.51;20.89;98360.38;5115182;28;20202;-53
2022/04/09 09:16:25;;;;;;;5.80;5.30;;;;;;;36.29;20.57;98369.00;5110342;28;20190;-53
2022/04/09 09:18:54;;;;;;;6.10;5.30;;;;;;;36.11;20.59;98363.72;5110427;28;20628;-53
2022/04/09 09:21:23;;;;;;;12.55;6.43;;;;;;;36.64;20.06;98350.00;5110691;28;20591;-52
2022/04/09 09:23:51;;;;;;;7.78;5.63;;;;;;;37.72;19.06;98353.63;5110229;28;20231;-53
2022/04/09 09:26:25;;;;;;;6.35;4.90;;;;;;;38.17;18.56;98356.22;5110114;28;20233;-52
2022/04/09 09:28:56;;;;;;;4.85;4.40;;;;;;;37.23;19.07;98347.94;5110184;28;20670;-53
2022/04/09 09:31:45;;;;;;;7.95;4.82;;;;;;;36.79;19.95;98354.13;5110130;28;20189;-53
2022/04/09 09:34:13;;;;;;;6.00;4.32;;;;;;;35.64;20.36;98342.09;5113957;28;20189;-53
2022/04/09 09:36:40;;;;;;;6.60;4.38;;;;;;;34.17;21.86;98346.09;5118815;28;20190;-53
2022/04/09 09:39:08;;;;;;;4.88;4.38;;;;;;;33.82;22.18;98343.16;5117910;28;20274;-52
2022/04/09 09:41:48;;;;;;;6.22;3.70;;;;;;;32.78;22.19;98332.03;5115530;28;20283;-53
2022/04/09 09:44:16;;;;;;;4.75;3.92;;;;;;;32.88;22.15;98323.50;5115473;28;20195;-52
2022/04/09 09:46:45;;;;;;;4.38;4.03;;;;;;;33.81;20.97;98325.34;5118592;28;20193;-53
2022/04/09 09:49:12;;;;;;;5.20;3.22;;;;;;;33.70;20.71;98320.66;5120047;28;20569;-52
2022/04/09 09:51:39;;;;;;;3.30;3.05;;;;;;;34.21;20.28;98319.53;5127956;28;20627;-52
2022/04/09 09:54:07;;;;;;;4.07;3.42;;;;;;;35.23;19.77;98312.41;5130513;28;20204;-53
2022/04/09 09:56:37;;;;;;;7.28;6.28;;;;;;;34.24;20.94;98309.13;5130977;27;20220;-52
2022/04/09 09:59:08;;;;;;;3.95;3.75;;;;;;;34.14;21.18;98303.44;5134575;27;20659;-53
2022/04/09 10:01:37;;;;;;;5.65;3.88;;;;;;;32.85;22.43;98294.38;5121374;27;20194;-53
2022/04/09 10:04:05;;;;;;;3.67;3.38;;;;;;;31.19;23.87;98298.44;5113926;28;20600;-53
2022/04/09 10:06:34;;;;;;;3.55;3.20;;;;;;;30.06;25.10;98302.56;5113351;28;20190;-53
2022/04/09 10:09:01;;;;;;;4.18;3.70;;;;;;;28.66;27.14;98293.53;5113464;28;20248;-52
2022/04/09 10:11:29;;;;;;;6.20;4.00;;;;;;;27.80;28.39;98288.88;5116413;27;20225;-53
2022/04/09 10:14:03;;;;;;;4.40;4.00;;;;;;;27.21;29.48;98286.09;5123529;27;20247;-53
2022/04/09 10:16:32;;;;;;;5.15;3.95;;;;;;;26.97;29.07;98287.13;5120159;27;20195;-53
2022/04/09 10:19:01;;;;;;;9.15;3.95;;;;;;;26.30;30.12;98273.50;5124001;27;20683;-53
2022/04/09 10:21:30;;;;;;;6.65;3.90;;;;;;;26.16;30.88;98270.75;5123120;27;20673;-53
2022/04/09 10:23:58;;;;;;;6.72;3.60;;;;;;;25.38;31.41;98271.44;5121370;27;20198;-53
2022/04/09 10:26:28;;;;;;;8.68;6.47;;;;;;;25.05;32.20;98260.00;5120293;27;20729;-53
2022/04/09 10:29:07;;;;;;;7.65;3.83;;;;;;;24.65;32.72;98257.25;5112428;27;20190;-53
2022/04/09 10:31:36;;;;;;;6.43;3.40;;;;;;;24.63;32.33;98261.91;5113188;28;20664;-50
2022/04/09 10:34:06;;;;;;;9.52;3.58;;;;;;;24.60;32.85;98255.91;5113018;28;20226;-52
2022/04/09 10:36:59;;;;;;;4.63;3.83;;;;;;;24.70;33.18;98242.53;5113005;28;20201;-51
2022/04/09 10:39:29;;;;;;;3.53;3.22;;;;;;;24.49;33.11;98245.63;5112974;28;20267;-51
2022/04/09 10:41:56;;;;;;;3.20;2.90;;;;;;;24.39;33.11;98236.16;5112975;28;20202;-52
2022/04/09 10:44:52;;;;;;;5.07;3.17;;;;;;;24.33;33.64;98229.69;5112987;28;20190;-51
2022/04/09 10:47:19;;;;;;;3.58;2.67;;;;;;;24.32;33.71;98229.84;5113117;28;20195;-51
2022/04/09 10:50:11;;;;;;;4.10;3.22;;;;;;;24.30;33.75;98227.34;5112862;28;20198;-51
2022/04/09 10:52:40;;;;;;;3.47;3.03;;;;;;;24.35;33.94;98229.53;5117095;27;20198;-51
2022/04/09 10:55:31;;;;;;;3.65;3.08;;;;;;;24.47;33.57;98213.16;5122927;27;20206;-52
2022/04/09 10:58:04;;;;;;;5.65;3.13;;;;;;;24.59;34.17;98222.47;5114906;27;20195;-50
2022/04/09 11:00:37;;;;;;;3.45;2.72;;;;;;;24.51;34.10;98222.41;5132356;27;20584;-51
2022/04/09 11:03:14;;;;;;;4.78;3.05;;;;;;;24.73;37.47;98215.63;5132127;27;20206;-50
2022/04/09 11:05:43;;;;;;;8.30;3.00;;;;;;;24.74;34.04;98217.31;5132213;27;20197;-51
2022/04/09 11:08:14;;;;;;;3.75;3.15;;;;;;;24.87;38.49;98217.66;5112562;27;20230;-52
2022/04/09 11:10:42;;;;;;;4.03;2.58;;;;;;;24.90;34.64;98219.16;5111483;28;20199;-51
2022/04/09 11:13:10;;;;;;;4.70;2.88;;;;;;;24.78;34.36;98220.47;5117148;27;20302;-53
2022/04/09 11:15:40;;;;;;;2.63;2.35;;;;;;;24.56;34.50;98213.97;5121855;27;20658;-52
2022/04/09 11:18:07;;;;;;;3.30;2.63;;;;;;;24.55;34.51;98209.66;5122242;27;20202;-53
2022/04/09 11:20:36;;;;;;;3.05;2.70;;;;;;;24.78;34.16;98208.03;5117710;27;20201;-53
2022/04/09 11:23:12;;;;;;;4.32;3.38;;;;;;;24.87;34.40;98215.00;5120772;27;20205;-53
2022/04/09 11:25:42;;;;;;;10.93;4.85;;;;;;;25.04;35.85;98205.25;5118883;27;20694;-53
2022/04/09 11:28:13;;;;;;;17.90;9.75;;;;;;;25.14;34.70;98211.19;5120255;27;20642;-53
2022/04/09 11:30:52;;;;;;;6.47;4.40;;;;;;;25.31;33.41;98218.13;5116014;27;20231;-53
2022/04/09 11:33:19;;;;;;;11.93;5.50;;;;;;;25.53;33.75;98210.44;5112044;28;20195;-53
2022/04/09 11:35:46;;;;;;;7.93;5.22;;;;;;;25.59;32.54;98199.16;5113952;27;20189;-53